sensor_id;sensor_type;location;lat;lon;timestamp;P1;durP1;ratioP1;P2;durP2;ratioP2
2404;SDS011;1213;43.206;27.922;2023-02-27T00:01:23;3.40;;;1.63;;
2404;SDS011;1213;43.206;27.922;2023-02-27T00:03:48;3.23;;;1.67;;
2404;SDS011;1213;43.206;27.922;2023-02-27T00:06:14;3.63;;;2.37;;
2404;SDS011;1213;43.206;27.922;2023-02-27T00:08:41;5.80;;;2.67;;
2404;SDS011;1213;43.206;27.922;2023-02-27T00:11:06;6.40;;;1.90;;
2404;SDS011;1213;43.206;27.922;2023-02-27T00:13:32;1.17;;;1.07;;
2404;SDS011;1213;43.206;27.922;2023-02-27T00:15:57;2.07;;;0.97;;
2404;SDS011;1213;43.206;27.922;2023-02-27T00:18:22;8.53;;;2.37;;
2404;SDS011;1213;43.206;27.922;2023-02-27T00:20:48;2.83;;;1.73;;
2404;SDS011;1213;43.206;27.922;2023-02-27T00:23:13;1.83;;;1.40;;
2404;SDS011;1213;43.206;27.922;2023-02-27T00:25:40;4.40;;;2.10;;
2404;SDS011;1213;43.206;27.922;2023-02-27T00:28:05;2.10;;;1.67;;
2404;SDS011;1213;43.206;27.922;2023-02-27T00:30:31;3.67;;;2.30;;
2404;SDS011;1213;43.206;27.922;2023-02-27T00:32:56;8.00;;;2.43;;
2404;SDS011;1213;43.206;27.922;2023-02-27T00:35:21;20.77;;;2.20;;
2404;SDS011;1213;43.206;27.922;2023-02-27T00:37:47;5.50;;;2.60;;
2404;SDS011;1213;43.206;27.922;2023-02-27T00:40:13;3.47;;;2.00;;
2404;SDS011;1213;43.206;27.922;2023-02-27T00:42:38;3.03;;;1.90;;
2404;SDS011;1213;43.206;27.922;2023-02-27T00:45:04;5.60;;;2.43;;
2404;SDS011;1213;43.206;27.922;2023-02-27T00:47:30;6.03;;;2.20;;
2404;SDS011;1213;43.206;27.922;2023-02-27T00:49:55;2.17;;;1.77;;
2404;SDS011;1213;43.206;27.922;2023-02-27T00:52:20;4.90;;;2.83;;
2404;SDS011;1213;43.206;27.922;2023-02-27T00:54:46;2.03;;;1.60;;
2404;SDS011;1213;43.206;27.922;2023-02-27T00:57:11;6.23;;;2.47;;
2404;SDS011;1213;43.206;27.922;2023-02-27T00:59:37;4.40;;;2.17;;
2404;SDS011;1213;43.206;27.922;2023-02-27T01:02:02;5.57;;;2.20;;
2404;SDS011;1213;43.206;27.922;2023-02-27T01:04:27;7.60;;;2.07;;
2404;SDS011;1213;43.206;27.922;2023-02-27T01:06:53;7.03;;;2.77;;
2404;SDS011;1213;43.206;27.922;2023-02-27T01:09:18;3.53;;;1.93;;
2404;SDS011;1213;43.206;27.922;2023-02-27T01:11:43;2.30;;;1.13;;
2404;SDS011;1213;43.206;27.922;2023-02-27T01:14:08;5.83;;;1.80;;
2404;SDS011;1213;43.206;27.922;2023-02-27T01:16:34;3.83;;;2.23;;
2404;SDS011;1213;43.206;27.922;2023-02-27T01:18:59;2.57;;;2.20;;
2404;SDS011;1213;43.206;27.922;2023-02-27T01:21:24;1.97;;;1.53;;
2404;SDS011;1213;43.206;27.922;2023-02-27T01:23:50;2.30;;;2.10;;
2404;SDS011;1213;43.206;27.922;2023-02-27T01:26:15;3.93;;;2.30;;
2404;SDS011;1213;43.206;27.922;2023-02-27T01:28:40;7.43;;;2.30;;
2404;SDS011;1213;43.206;27.922;2023-02-27T01:31:05;4.00;;;3.23;;
2404;SDS011;1213;43.206;27.922;2023-02-27T01:33:31;9.40;;;2.20;;
2404;SDS011;1213;43.206;27.922;2023-02-27T01:35:56;4.03;;;2.03;;
2404;SDS011;1213;43.206;27.922;2023-02-27T01:38:21;3.33;;;1.87;;
2404;SDS011;1213;43.206;27.922;2023-02-27T01:40:47;8.93;;;2.90;;
2404;SDS011;1213;43.206;27.922;2023-02-27T01:43:16;2.67;;;1.50;;
2404;SDS011;1213;43.206;27.922;2023-02-27T01:45:42;7.50;;;2.33;;
2404;SDS011;1213;43.206;27.922;2023-02-27T01:50:54;3.40;;;2.20;;
2404;SDS011;1213;43.206;27.922;2023-02-27T01:53:20;22.77;;;3.63;;
2404;SDS011;1213;43.206;27.922;2023-02-27T01:55:49;2.67;;;2.03;;
2404;SDS011;1213;43.206;27.922;2023-02-27T01:58:15;2.70;;;1.97;;
2404;SDS011;1213;43.206;27.922;2023-02-27T02:00:41;4.80;;;2.20;;
2404;SDS011;1213;43.206;27.922;2023-02-27T02:05:38;5.87;;;2.53;;
2404;SDS011;1213;43.206;27.922;2023-02-27T02:08:03;6.20;;;1.80;;
2404;SDS011;1213;43.206;27.922;2023-02-27T02:10:29;5.37;;;1.90;;
2404;SDS011;1213;43.206;27.922;2023-02-27T02:12:56;4.63;;;2.00;;
2404;SDS011;1213;43.206;27.922;2023-02-27T02:15:29;5.80;;;1.97;;
2404;SDS011;1213;43.206;27.922;2023-02-27T02:46:29;5.10;;;1.80;;
2404;SDS011;1213;43.206;27.922;2023-02-27T02:49:17;4.70;;;2.17;;
2404;SDS011;1213;43.206;27.922;2023-02-27T02:51:44;3.00;;;1.70;;
2404;SDS011;1213;43.206;27.922;2023-02-27T02:54:25;4.70;;;2.10;;
2404;SDS011;1213;43.206;27.922;2023-02-27T02:56:57;3.47;;;2.20;;
2404;SDS011;1213;43.206;27.922;2023-02-27T02:59:42;4.10;;;1.60;;
2404;SDS011;1213;43.206;27.922;2023-02-27T03:02:13;2.63;;;2.10;;
2404;SDS011;1213;43.206;27.922;2023-02-27T03:07:10;3.70;;;1.70;;
2404;SDS011;1213;43.206;27.922;2023-02-27T03:12:01;5.80;;;1.80;;
2404;SDS011;1213;43.206;27.922;2023-02-27T03:14:29;2.43;;;1.60;;
2404;SDS011;1213;43.206;27.922;2023-02-27T03:16:56;3.67;;;1.80;;
2404;SDS011;1213;43.206;27.922;2023-02-27T03:19:27;3.00;;;1.70;;
2404;SDS011;1213;43.206;27.922;2023-02-27T03:22:06;2.13;;;1.60;;
2404;SDS011;1213;43.206;27.922;2023-02-27T03:27:01;5.90;;;2.63;;
2404;SDS011;1213;43.206;27.922;2023-02-27T03:29:37;4.30;;;2.27;;
2404;SDS011;1213;43.206;27.922;2023-02-27T03:32:47;6.50;;;2.17;;
2404;SDS011;1213;43.206;27.922;2023-02-27T03:34:53;1.67;;;1.57;;
2404;SDS011;1213;43.206;27.922;2023-02-27T03:37:24;5.67;;;2.30;;
2404;SDS011;1213;43.206;27.922;2023-02-27T03:39:53;5.07;;;2.10;;
2404;SDS011;1213;43.206;27.922;2023-02-27T03:47:20;3.73;;;1.87;;
2404;SDS011;1213;43.206;27.922;2023-02-27T03:49:46;8.83;;;2.37;;
2404;SDS011;1213;43.206;27.922;2023-02-27T03:52:12;1.70;;;1.60;;
2404;SDS011;1213;43.206;27.922;2023-02-27T03:54:40;8.57;;;2.50;;
2404;SDS011;1213;43.206;27.922;2023-02-27T03:57:07;2.33;;;1.90;;
2404;SDS011;1213;43.206;27.922;2023-02-27T03:59:33;6.53;;;2.47;;
2404;SDS011;1213;43.206;27.922;2023-02-27T04:02:00;7.93;;;2.40;;
2404;SDS011;1213;43.206;27.922;2023-02-27T04:04:27;2.03;;;1.83;;
2404;SDS011;1213;43.206;27.922;2023-02-27T04:06:57;6.67;;;2.67;;
2404;SDS011;1213;43.206;27.922;2023-02-27T04:09:54;3.03;;;1.80;;
2404;SDS011;1213;43.206;27.922;2023-02-27T04:17:26;4.63;;;2.60;;
2404;SDS011;1213;43.206;27.922;2023-02-27T04:20:00;2.87;;;2.00;;
2404;SDS011;1213;43.206;27.922;2023-02-27T04:28:03;5.03;;;2.13;;
2404;SDS011;1213;43.206;27.922;2023-02-27T04:35:59;3.70;;;1.90;;
2404;SDS011;1213;43.206;27.922;2023-02-27T04:38:27;2.50;;;2.30;;
2404;SDS011;1213;43.206;27.922;2023-02-27T04:40:58;3.07;;;1.80;;
2404;SDS011;1213;43.206;27.922;2023-02-27T04:43:25;4.20;;;1.83;;
2404;SDS011;1213;43.206;27.922;2023-02-27T04:45:52;16.53;;;3.33;;
2404;SDS011;1213;43.206;27.922;2023-02-27T04:48:23;4.37;;;1.80;;
2404;SDS011;1213;43.206;27.922;2023-02-27T04:51:06;7.13;;;2.13;;
2404;SDS011;1213;43.206;27.922;2023-02-27T04:56:22;4.90;;;2.70;;
2404;SDS011;1213;43.206;27.922;2023-02-27T04:58:50;10.53;;;3.00;;
2404;SDS011;1213;43.206;27.922;2023-02-27T05:01:23;3.50;;;2.50;;
2404;SDS011;1213;43.206;27.922;2023-02-27T05:03:50;4.00;;;2.43;;
2404;SDS011;1213;43.206;27.922;2023-02-27T05:06:17;6.13;;;2.03;;
2404;SDS011;1213;43.206;27.922;2023-02-27T05:11:26;2.57;;;2.00;;
2404;SDS011;1213;43.206;27.922;2023-02-27T05:13:54;4.30;;;2.40;;
2404;SDS011;1213;43.206;27.922;2023-02-27T05:16:35;7.33;;;2.70;;
2404;SDS011;1213;43.206;27.922;2023-02-27T05:19:02;13.60;;;2.90;;
2404;SDS011;1213;43.206;27.922;2023-02-27T05:22:04;10.47;;;2.73;;
2404;SDS011;1213;43.206;27.922;2023-02-27T05:24:26;5.13;;;2.63;;
2404;SDS011;1213;43.206;27.922;2023-02-27T05:29:25;6.60;;;2.70;;
2404;SDS011;1213;43.206;27.922;2023-02-27T05:31:54;3.33;;;3.03;;
2404;SDS011;1213;43.206;27.922;2023-02-27T05:34:42;3.53;;;2.47;;
2404;SDS011;1213;43.206;27.922;2023-02-27T05:37:10;3.67;;;2.47;;
2404;SDS011;1213;43.206;27.922;2023-02-27T05:39:39;23.90;;;4.20;;
2404;SDS011;1213;43.206;27.922;2023-02-27T05:42:10;3.00;;;2.37;;
2404;SDS011;1213;43.206;27.922;2023-02-27T05:44:38;10.10;;;3.10;;
2404;SDS011;1213;43.206;27.922;2023-02-27T05:47:07;8.30;;;2.60;;
2404;SDS011;1213;43.206;27.922;2023-02-27T05:49:47;9.13;;;3.70;;
2404;SDS011;1213;43.206;27.922;2023-02-27T05:52:16;13.87;;;3.40;;
2404;SDS011;1213;43.206;27.922;2023-02-27T05:57:09;7.80;;;3.77;;
2404;SDS011;1213;43.206;27.922;2023-02-27T05:59:39;5.20;;;3.43;;
2404;SDS011;1213;43.206;27.922;2023-02-27T06:02:08;4.47;;;3.60;;
2404;SDS011;1213;43.206;27.922;2023-02-27T06:04:34;10.63;;;4.00;;
2404;SDS011;1213;43.206;27.922;2023-02-27T06:07:00;16.57;;;4.53;;
2404;SDS011;1213;43.206;27.922;2023-02-27T06:09:25;8.60;;;3.50;;
2404;SDS011;1213;43.206;27.922;2023-02-27T06:11:50;10.70;;;4.37;;
2404;SDS011;1213;43.206;27.922;2023-02-27T06:14:15;7.07;;;4.30;;
2404;SDS011;1213;43.206;27.922;2023-02-27T06:16:41;12.80;;;4.77;;
2404;SDS011;1213;43.206;27.922;2023-02-27T06:19:06;21.93;;;3.90;;
2404;SDS011;1213;43.206;27.922;2023-02-27T06:21:31;7.47;;;3.80;;
2404;SDS011;1213;43.206;27.922;2023-02-27T06:23:57;8.90;;;3.67;;
2404;SDS011;1213;43.206;27.922;2023-02-27T06:26:22;14.80;;;3.10;;
2404;SDS011;1213;43.206;27.922;2023-02-27T06:28:48;7.10;;;4.20;;
2404;SDS011;1213;43.206;27.922;2023-02-27T06:31:13;7.53;;;3.50;;
2404;SDS011;1213;43.206;27.922;2023-02-27T06:33:38;13.63;;;8.17;;
2404;SDS011;1213;43.206;27.922;2023-02-27T06:36:03;13.43;;;5.43;;
2404;SDS011;1213;43.206;27.922;2023-02-27T06:38:29;6.33;;;3.17;;
2404;SDS011;1213;43.206;27.922;2023-02-27T06:40:54;4.00;;;2.50;;
2404;SDS011;1213;43.206;27.922;2023-02-27T06:43:20;7.57;;;3.20;;
2404;SDS011;1213;43.206;27.922;2023-02-27T06:45:48;6.77;;;2.30;;
2404;SDS011;1213;43.206;27.922;2023-02-27T06:48:14;10.10;;;2.93;;
2404;SDS011;1213;43.206;27.922;2023-02-27T06:50:39;5.73;;;2.93;;
2404;SDS011;1213;43.206;27.922;2023-02-27T06:53:05;6.43;;;3.47;;
2404;SDS011;1213;43.206;27.922;2023-02-27T06:55:31;8.00;;;2.90;;
2404;SDS011;1213;43.206;27.922;2023-02-27T06:57:56;6.97;;;3.10;;
2404;SDS011;1213;43.206;27.922;2023-02-27T07:00:21;7.30;;;2.90;;
2404;SDS011;1213;43.206;27.922;2023-02-27T07:02:47;9.60;;;6.13;;
2404;SDS011;1213;43.206;27.922;2023-02-27T07:05:12;10.00;;;3.80;;
2404;SDS011;1213;43.206;27.922;2023-02-27T07:07:38;3.40;;;3.10;;
2404;SDS011;1213;43.206;27.922;2023-02-27T07:10:04;4.87;;;2.93;;
2404;SDS011;1213;43.206;27.922;2023-02-27T07:12:30;5.53;;;2.77;;
2404;SDS011;1213;43.206;27.922;2023-02-27T07:14:55;6.87;;;3.30;;
2404;SDS011;1213;43.206;27.922;2023-02-27T07:17:20;7.23;;;3.60;;
2404;SDS011;1213;43.206;27.922;2023-02-27T07:19:46;8.00;;;2.40;;
2404;SDS011;1213;43.206;27.922;2023-02-27T07:22:11;4.83;;;2.43;;
2404;SDS011;1213;43.206;27.922;2023-02-27T07:24:37;7.10;;;3.00;;
2404;SDS011;1213;43.206;27.922;2023-02-27T07:27:02;6.17;;;3.43;;
2404;SDS011;1213;43.206;27.922;2023-02-27T07:29:27;5.93;;;3.00;;
2404;SDS011;1213;43.206;27.922;2023-02-27T07:31:53;10.30;;;2.63;;
2404;SDS011;1213;43.206;27.922;2023-02-27T07:34:18;4.37;;;2.33;;
2404;SDS011;1213;43.206;27.922;2023-02-27T07:36:43;3.07;;;2.70;;
2404;SDS011;1213;43.206;27.922;2023-02-27T07:39:10;10.23;;;3.43;;
2404;SDS011;1213;43.206;27.922;2023-02-27T07:41:35;12.00;;;2.50;;
2404;SDS011;1213;43.206;27.922;2023-02-27T07:44:01;3.43;;;2.10;;
2404;SDS011;1213;43.206;27.922;2023-02-27T07:46:26;13.80;;;2.83;;
2404;SDS011;1213;43.206;27.922;2023-02-27T07:48:52;5.90;;;2.27;;
2404;SDS011;1213;43.206;27.922;2023-02-27T07:51:17;2.80;;;2.57;;
2404;SDS011;1213;43.206;27.922;2023-02-27T07:53:42;9.30;;;3.25;;
2404;SDS011;1213;43.206;27.922;2023-02-27T07:56:08;7.50;;;2.90;;
2404;SDS011;1213;43.206;27.922;2023-02-27T07:58:33;8.97;;;2.80;;
2404;SDS011;1213;43.206;27.922;2023-02-27T08:00:59;4.83;;;3.20;;
2404;SDS011;1213;43.206;27.922;2023-02-27T08:03:24;5.00;;;2.53;;
2404;SDS011;1213;43.206;27.922;2023-02-27T08:05:50;5.20;;;2.50;;
2404;SDS011;1213;43.206;27.922;2023-02-27T08:08:15;6.13;;;2.50;;
2404;SDS011;1213;43.206;27.922;2023-02-27T08:10:40;4.03;;;2.60;;
2404;SDS011;1213;43.206;27.922;2023-02-27T08:13:05;6.40;;;3.37;;
2404;SDS011;1213;43.206;27.922;2023-02-27T08:15:31;13.43;;;2.80;;
2404;SDS011;1213;43.206;27.922;2023-02-27T08:17:57;10.30;;;2.60;;
2404;SDS011;1213;43.206;27.922;2023-02-27T08:20:22;7.90;;;2.73;;
2404;SDS011;1213;43.206;27.922;2023-02-27T08:22:48;2.50;;;2.30;;
2404;SDS011;1213;43.206;27.922;2023-02-27T08:25:13;10.67;;;4.50;;
2404;SDS011;1213;43.206;27.922;2023-02-27T08:27:39;7.13;;;2.57;;
2404;SDS011;1213;43.206;27.922;2023-02-27T08:30:05;4.57;;;2.80;;
2404;SDS011;1213;43.206;27.922;2023-02-27T08:32:31;12.67;;;3.77;;
2404;SDS011;1213;43.206;27.922;2023-02-27T08:34:57;9.33;;;2.10;;
2404;SDS011;1213;43.206;27.922;2023-02-27T08:37:22;5.63;;;4.03;;
2404;SDS011;1213;43.206;27.922;2023-02-27T08:39:48;10.93;;;3.30;;
2404;SDS011;1213;43.206;27.922;2023-02-27T08:42:13;6.97;;;3.07;;
2404;SDS011;1213;43.206;27.922;2023-02-27T08:44:39;6.13;;;2.70;;
2404;SDS011;1213;43.206;27.922;2023-02-27T08:47:04;11.03;;;2.97;;
2404;SDS011;1213;43.206;27.922;2023-02-27T08:49:30;6.40;;;2.43;;
2404;SDS011;1213;43.206;27.922;2023-02-27T08:51:55;7.37;;;3.17;;
2404;SDS011;1213;43.206;27.922;2023-02-27T08:54:20;5.10;;;3.37;;
2404;SDS011;1213;43.206;27.922;2023-02-27T08:56:46;9.17;;;4.07;;
2404;SDS011;1213;43.206;27.922;2023-02-27T08:59:13;8.13;;;3.47;;
2404;SDS011;1213;43.206;27.922;2023-02-27T09:01:39;5.33;;;3.80;;
2404;SDS011;1213;43.206;27.922;2023-02-27T09:04:04;12.93;;;3.20;;
2404;SDS011;1213;43.206;27.922;2023-02-27T09:06:31;5.77;;;3.43;;
2404;SDS011;1213;43.206;27.922;2023-02-27T09:08:56;8.80;;;4.60;;
2404;SDS011;1213;43.206;27.922;2023-02-27T09:11:22;5.50;;;3.93;;
2404;SDS011;1213;43.206;27.922;2023-02-27T09:13:48;10.40;;;3.93;;
2404;SDS011;1213;43.206;27.922;2023-02-27T09:16:13;9.13;;;2.70;;
2404;SDS011;1213;43.206;27.922;2023-02-27T09:18:38;4.63;;;3.03;;
2404;SDS011;1213;43.206;27.922;2023-02-27T09:21:04;1.83;;;1.50;;
2404;SDS011;1213;43.206;27.922;2023-02-27T09:23:29;2.60;;;2.20;;
2404;SDS011;1213;43.206;27.922;2023-02-27T09:25:54;2.63;;;1.97;;
2404;SDS011;1213;43.206;27.922;2023-02-27T09:28:20;4.30;;;3.20;;
2404;SDS011;1213;43.206;27.922;2023-02-27T09:30:45;2.13;;;1.93;;
2404;SDS011;1213;43.206;27.922;2023-02-27T09:33:10;5.60;;;2.50;;
2404;SDS011;1213;43.206;27.922;2023-02-27T09:35:36;2.50;;;2.03;;
2404;SDS011;1213;43.206;27.922;2023-02-27T09:38:01;5.47;;;2.30;;
2404;SDS011;1213;43.206;27.922;2023-02-27T09:40:28;2.63;;;2.43;;
2404;SDS011;1213;43.206;27.922;2023-02-27T09:42:54;7.13;;;2.07;;
2404;SDS011;1213;43.206;27.922;2023-02-27T09:45:31;5.03;;;2.43;;
2404;SDS011;1213;43.206;27.922;2023-02-27T09:48:05;8.07;;;2.83;;
2404;SDS011;1213;43.206;27.922;2023-02-27T09:50:34;4.33;;;3.17;;
2404;SDS011;1213;43.206;27.922;2023-02-27T09:53:01;3.77;;;2.00;;
2404;SDS011;1213;43.206;27.922;2023-02-27T09:55:28;2.87;;;2.20;;
2404;SDS011;1213;43.206;27.922;2023-02-27T09:58:00;1.30;;;1.20;;
2404;SDS011;1213;43.206;27.922;2023-02-27T10:00:44;1.93;;;1.60;;
2404;SDS011;1213;43.206;27.922;2023-02-27T10:06:24;6.70;;;2.10;;
2404;SDS011;1213;43.206;27.922;2023-02-27T10:11:28;1.90;;;1.70;;
2404;SDS011;1213;43.206;27.922;2023-02-27T10:13:58;2.30;;;2.10;;
2404;SDS011;1213;43.206;27.922;2023-02-27T10:16:25;5.73;;;2.37;;
2404;SDS011;1213;43.206;27.922;2023-02-27T10:18:57;2.57;;;2.37;;
2404;SDS011;1213;43.206;27.922;2023-02-27T10:21:34;3.40;;;1.93;;
2404;SDS011;1213;43.206;27.922;2023-02-27T10:26:34;1.50;;;1.40;;
2404;SDS011;1213;43.206;27.922;2023-02-27T10:29:18;3.53;;;2.53;;
2404;SDS011;1213;43.206;27.922;2023-02-27T10:31:45;4.47;;;2.93;;
2404;SDS011;1213;43.206;27.922;2023-02-27T10:34:11;4.17;;;2.60;;
2404;SDS011;1213;43.206;27.922;2023-02-27T10:36:37;4.73;;;2.07;;
2404;SDS011;1213;43.206;27.922;2023-02-27T10:39:05;3.03;;;2.23;;
2404;SDS011;1213;43.206;27.922;2023-02-27T10:41:31;6.50;;;2.37;;
2404;SDS011;1213;43.206;27.922;2023-02-27T10:43:57;4.83;;;1.70;;
2404;SDS011;1213;43.206;27.922;2023-02-27T10:46:27;36.67;;;4.30;;
2404;SDS011;1213;43.206;27.922;2023-02-27T10:48:53;11.07;;;2.20;;
2404;SDS011;1213;43.206;27.922;2023-02-27T10:51:20;3.77;;;3.10;;
2404;SDS011;1213;43.206;27.922;2023-02-27T10:53:46;5.27;;;3.00;;
2404;SDS011;1213;43.206;27.922;2023-02-27T10:56:14;2.80;;;2.27;;
2404;SDS011;1213;43.206;27.922;2023-02-27T10:58:40;2.93;;;2.20;;
2404;SDS011;1213;43.206;27.922;2023-02-27T11:01:07;3.57;;;1.97;;
2404;SDS011;1213;43.206;27.922;2023-02-27T11:03:36;2.20;;;2.00;;
2404;SDS011;1213;43.206;27.922;2023-02-27T11:06:19;7.80;;;2.33;;
2404;SDS011;1213;43.206;27.922;2023-02-27T11:09:08;3.57;;;2.17;;
2404;SDS011;1213;43.206;27.922;2023-02-27T11:11:31;5.13;;;1.77;;
2404;SDS011;1213;43.206;27.922;2023-02-27T11:13:57;3.53;;;2.20;;
2404;SDS011;1213;43.206;27.922;2023-02-27T11:16:47;2.70;;;2.40;;
2404;SDS011;1213;43.206;27.922;2023-02-27T11:19:22;2.30;;;2.00;;
2404;SDS011;1213;43.206;27.922;2023-02-27T11:22:01;3.10;;;1.40;;
2404;SDS011;1213;43.206;27.922;2023-02-27T11:24:27;1.80;;;1.60;;
2404;SDS011;1213;43.206;27.922;2023-02-27T11:26:57;3.43;;;2.60;;
2404;SDS011;1213;43.206;27.922;2023-02-27T11:29:23;6.70;;;2.77;;
2404;SDS011;1213;43.206;27.922;2023-02-27T11:34:24;2.43;;;2.20;;
2404;SDS011;1213;43.206;27.922;2023-02-27T11:36:51;2.40;;;2.20;;
2404;SDS011;1213;43.206;27.922;2023-02-27T11:39:25;3.53;;;2.60;;
2404;SDS011;1213;43.206;27.922;2023-02-27T11:41:50;3.57;;;2.43;;
2404;SDS011;1213;43.206;27.922;2023-02-27T11:44:17;1.83;;;1.43;;
2404;SDS011;1213;43.206;27.922;2023-02-27T11:46:44;3.43;;;2.20;;
2404;SDS011;1213;43.206;27.922;2023-02-27T11:52:28;2.13;;;1.77;;
2404;SDS011;1213;43.206;27.922;2023-02-27T11:54:47;3.50;;;2.37;;
2404;SDS011;1213;43.206;27.922;2023-02-27T11:57:21;3.00;;;2.07;;
2404;SDS011;1213;43.206;27.922;2023-02-27T11:59:49;4.03;;;2.57;;
2404;SDS011;1213;43.206;27.922;2023-02-27T12:02:24;2.57;;;2.23;;
2404;SDS011;1213;43.206;27.922;2023-02-27T12:04:58;4.33;;;2.53;;
2404;SDS011;1213;43.206;27.922;2023-02-27T12:07:37;1.80;;;1.70;;
2404;SDS011;1213;43.206;27.922;2023-02-27T12:12:42;2.73;;;2.50;;
2404;SDS011;1213;43.206;27.922;2023-02-27T12:17:49;4.20;;;3.70;;
2404;SDS011;1213;43.206;27.922;2023-02-27T12:20:35;3.87;;;2.37;;
2404;SDS011;1213;43.206;27.922;2023-02-27T12:23:03;3.87;;;2.57;;
2404;SDS011;1213;43.206;27.922;2023-02-27T12:25:41;3.83;;;2.50;;
2404;SDS011;1213;43.206;27.922;2023-02-27T12:28:12;4.43;;;3.10;;
2404;SDS011;1213;43.206;27.922;2023-02-27T12:30:44;4.70;;;3.40;;
2404;SDS011;1213;43.206;27.922;2023-02-27T12:35:57;4.27;;;2.90;;
2404;SDS011;1213;43.206;27.922;2023-02-27T12:38:23;8.90;;;2.80;;
2404;SDS011;1213;43.206;27.922;2023-02-27T12:43:21;4.53;;;3.00;;
2404;SDS011;1213;43.206;27.922;2023-02-27T12:53:34;4.80;;;2.70;;
2404;SDS011;1213;43.206;27.922;2023-02-27T12:56:05;6.43;;;2.60;;
2404;SDS011;1213;43.206;27.922;2023-02-27T12:58:46;6.10;;;2.73;;
2404;SDS011;1213;43.206;27.922;2023-02-27T13:01:30;5.90;;;2.73;;
2404;SDS011;1213;43.206;27.922;2023-02-27T13:04:04;3.50;;;2.63;;
2404;SDS011;1213;43.206;27.922;2023-02-27T13:06:39;3.40;;;2.27;;
2404;SDS011;1213;43.206;27.922;2023-02-27T13:12:00;3.40;;;3.10;;
2404;SDS011;1213;43.206;27.922;2023-02-27T13:17:03;6.30;;;5.40;;
2404;SDS011;1213;43.206;27.922;2023-02-27T13:19:43;7.03;;;5.00;;
2404;SDS011;1213;43.206;27.922;2023-02-27T13:24:54;6.00;;;4.07;;
2404;SDS011;1213;43.206;27.922;2023-02-27T13:35:18;5.00;;;4.07;;
2404;SDS011;1213;43.206;27.922;2023-02-27T13:37:47;7.37;;;3.83;;
2404;SDS011;1213;43.206;27.922;2023-02-27T13:40:46;4.77;;;4.30;;
2404;SDS011;1213;43.206;27.922;2023-02-27T13:45:52;6.70;;;4.47;;
2404;SDS011;1213;43.206;27.922;2023-02-27T13:50:58;7.83;;;4.27;;
2404;SDS011;1213;43.206;27.922;2023-02-27T13:53:25;4.73;;;3.23;;
2404;SDS011;1213;43.206;27.922;2023-02-27T13:55:52;5.20;;;3.20;;
2404;SDS011;1213;43.206;27.922;2023-02-27T13:58:20;3.13;;;2.00;;
2404;SDS011;1213;43.206;27.922;2023-02-27T14:00:55;5.80;;;3.53;;
2404;SDS011;1213;43.206;27.922;2023-02-27T14:03:22;4.47;;;3.30;;
2404;SDS011;1213;43.206;27.922;2023-02-27T14:05:50;6.50;;;3.13;;
2404;SDS011;1213;43.206;27.922;2023-02-27T14:16:03;4.43;;;2.83;;
2404;SDS011;1213;43.206;27.922;2023-02-27T14:18:45;5.70;;;2.90;;
2404;SDS011;1213;43.206;27.922;2023-02-27T14:21:12;4.87;;;2.93;;
2404;SDS011;1213;43.206;27.922;2023-02-27T14:23:57;5.50;;;3.00;;
2404;SDS011;1213;43.206;27.922;2023-02-27T14:26:22;4.50;;;2.03;;
2404;SDS011;1213;43.206;27.922;2023-02-27T14:28:51;2.90;;;2.60;;
2404;SDS011;1213;43.206;27.922;2023-02-27T14:31:21;5.63;;;2.97;;
2404;SDS011;1213;43.206;27.922;2023-02-27T14:33:48;9.10;;;3.40;;
2404;SDS011;1213;43.206;27.922;2023-02-27T14:36:22;11.87;;;3.83;;
2404;SDS011;1213;43.206;27.922;2023-02-27T14:38:48;7.63;;;4.03;;
2404;SDS011;1213;43.206;27.922;2023-02-27T14:41:16;4.93;;;3.33;;
2404;SDS011;1213;43.206;27.922;2023-02-27T14:43:47;6.07;;;3.23;;
2404;SDS011;1213;43.206;27.922;2023-02-27T14:48:51;6.55;;;3.30;;
2404;SDS011;1213;43.206;27.922;2023-02-27T14:51:17;8.93;;;4.97;;
2404;SDS011;1213;43.206;27.922;2023-02-27T14:53:42;45.57;;;24.77;;
2404;SDS011;1213;43.206;27.922;2023-02-27T14:56:13;17.80;;;13.50;;
2404;SDS011;1213;43.206;27.922;2023-02-27T14:58:50;9.47;;;6.50;;
2404;SDS011;1213;43.206;27.922;2023-02-27T15:01:18;5.23;;;3.23;;
2404;SDS011;1213;43.206;27.922;2023-02-27T15:03:53;5.83;;;3.60;;
2404;SDS011;1213;43.206;27.922;2023-02-27T15:06:20;9.13;;;4.37;;
2404;SDS011;1213;43.206;27.922;2023-02-27T15:08:50;7.50;;;4.63;;
2404;SDS011;1213;43.206;27.922;2023-02-27T15:11:17;5.63;;;3.77;;
2404;SDS011;1213;43.206;27.922;2023-02-27T15:13:44;7.93;;;3.50;;
2404;SDS011;1213;43.206;27.922;2023-02-27T15:18:47;6.77;;;3.67;;
2404;SDS011;1213;43.206;27.922;2023-02-27T15:21:17;11.40;;;4.07;;
2404;SDS011;1213;43.206;27.922;2023-02-27T15:23:42;11.23;;;4.40;;
2404;SDS011;1213;43.206;27.922;2023-02-27T15:26:09;7.37;;;3.40;;
2404;SDS011;1213;43.206;27.922;2023-02-27T15:28:36;6.40;;;4.10;;
2404;SDS011;1213;43.206;27.922;2023-02-27T15:31:03;7.87;;;4.00;;
2404;SDS011;1213;43.206;27.922;2023-02-27T15:33:29;4.77;;;3.63;;
2404;SDS011;1213;43.206;27.922;2023-02-27T15:35:56;6.30;;;3.87;;
2404;SDS011;1213;43.206;27.922;2023-02-27T15:38:28;5.00;;;3.97;;
2404;SDS011;1213;43.206;27.922;2023-02-27T15:40:54;5.80;;;4.30;;
2404;SDS011;1213;43.206;27.922;2023-02-27T15:43:21;7.73;;;5.50;;
2404;SDS011;1213;43.206;27.922;2023-02-27T15:45:47;23.73;;;13.90;;
2404;SDS011;1213;43.206;27.922;2023-02-27T15:48:13;8.13;;;6.10;;
2404;SDS011;1213;43.206;27.922;2023-02-27T15:50:51;7.87;;;5.93;;
2404;SDS011;1213;43.206;27.922;2023-02-27T15:53:18;8.93;;;5.83;;
2404;SDS011;1213;43.206;27.922;2023-02-27T15:55:46;6.90;;;4.80;;
2404;SDS011;1213;43.206;27.922;2023-02-27T15:58:16;15.03;;;7.13;;
2404;SDS011;1213;43.206;27.922;2023-02-27T16:00:43;7.60;;;5.77;;
2404;SDS011;1213;43.206;27.922;2023-02-27T16:03:10;9.97;;;5.73;;
2404;SDS011;1213;43.206;27.922;2023-02-27T16:05:57;8.00;;;5.40;;
2404;SDS011;1213;43.206;27.922;2023-02-27T16:08:23;11.47;;;5.90;;
2404;SDS011;1213;43.206;27.922;2023-02-27T16:10:49;8.33;;;5.33;;
2404;SDS011;1213;43.206;27.922;2023-02-27T16:13:36;10.93;;;6.20;;
2404;SDS011;1213;43.206;27.922;2023-02-27T16:16:02;10.23;;;5.80;;
2404;SDS011;1213;43.206;27.922;2023-02-27T16:18:32;15.03;;;6.13;;
2404;SDS011;1213;43.206;27.922;2023-02-27T16:21:21;7.47;;;5.07;;
2404;SDS011;1213;43.206;27.922;2023-02-27T16:23:45;8.07;;;5.97;;
2404;SDS011;1213;43.206;27.922;2023-02-27T16:28:53;24.87;;;13.27;;
2404;SDS011;1213;43.206;27.922;2023-02-27T16:36:55;8.20;;;6.20;;
2404;SDS011;1213;43.206;27.922;2023-02-27T16:39:20;9.63;;;5.33;;
2404;SDS011;1213;43.206;27.922;2023-02-27T16:41:46;8.90;;;5.53;;
2404;SDS011;1213;43.206;27.922;2023-02-27T16:44:11;10.03;;;6.77;;
2404;SDS011;1213;43.206;27.922;2023-02-27T16:46:36;11.87;;;6.57;;
2404;SDS011;1213;43.206;27.922;2023-02-27T16:49:02;14.20;;;7.00;;
2404;SDS011;1213;43.206;27.922;2023-02-27T16:51:29;8.90;;;5.57;;
2404;SDS011;1213;43.206;27.922;2023-02-27T16:53:55;9.90;;;5.93;;
2404;SDS011;1213;43.206;27.922;2023-02-27T16:56:22;11.60;;;6.37;;
2404;SDS011;1213;43.206;27.922;2023-02-27T16:58:50;9.40;;;6.27;;
2404;SDS011;1213;43.206;27.922;2023-02-27T17:01:15;8.63;;;5.50;;
2404;SDS011;1213;43.206;27.922;2023-02-27T17:03:41;7.07;;;5.60;;
2404;SDS011;1213;43.206;27.922;2023-02-27T17:06:06;16.80;;;7.73;;
2404;SDS011;1213;43.206;27.922;2023-02-27T17:08:33;8.40;;;6.13;;
2404;SDS011;1213;43.206;27.922;2023-02-27T17:10:59;10.60;;;5.73;;
2404;SDS011;1213;43.206;27.922;2023-02-27T17:13:24;7.57;;;4.63;;
2404;SDS011;1213;43.206;27.922;2023-02-27T17:15:50;13.77;;;8.53;;
2404;SDS011;1213;43.206;27.922;2023-02-27T17:18:15;12.93;;;6.67;;
2404;SDS011;1213;43.206;27.922;2023-02-27T17:20:40;17.37;;;6.60;;
2404;SDS011;1213;43.206;27.922;2023-02-27T17:23:07;13.87;;;7.57;;
2404;SDS011;1213;43.206;27.922;2023-02-27T17:25:33;9.70;;;7.07;;
2404;SDS011;1213;43.206;27.922;2023-02-27T17:27:58;10.07;;;6.50;;
2404;SDS011;1213;43.206;27.922;2023-02-27T17:30:23;8.57;;;6.40;;
2404;SDS011;1213;43.206;27.922;2023-02-27T17:32:49;10.17;;;5.63;;
2404;SDS011;1213;43.206;27.922;2023-02-27T17:35:14;8.00;;;5.77;;